This is the latest recevied weather packets stored in our database for station/object KF0PEC-13. If no packets are shown the sender has not sent any weather packets the latest 10 day(s).
| Time | Temp. | Humidity | Pressure | Rain* | Wind** | Luminosity | Snow |
|---|---|---|---|---|---|---|---|
| 1777763727 | 18.33° C | 24% | 1020.4 hPa | 0 mm | - | - | - |
| 1777760727 | 18.89° C | 24% | 1020.7 hPa | 0 mm | - | - | - |
| 1777754143 | 17.78° C | 27% | 1022.2 hPa | 0 mm | - | - | - |
| 1777753519 | 18.33° C | 26% | 1022.3 hPa | 0 mm | - | - | - |
| 1777752352 | 18.33° C | 27% | 1022.4 hPa | 0 mm | - | - | - |
| 1777751728 | 17.78° C | 28% | 1022.4 hPa | 0 mm | - | - | - |
| 1777745728 | 17.22° C | 27% | 1023.5 hPa | 0 mm | - | - | - |
| 1777745124 | 16.67° C | 27% | 1023.6 hPa | 0 mm | - | - | - |
| 1777744540 | 17.22° C | 25% | 1023.7 hPa | 0 mm | - | - | - |
| 1777743916 | 17.22° C | 26% | 1023.8 hPa | 0 mm | - | - | - |
| 1777741521 | 16.11° C | 25% | 1024.1 hPa | 0 mm | - | - | - |
| 1777734333 | 13.33° C | 32% | 1024.6 hPa | 0 mm | - | - | - |
| 1777732561 | 11.67° C | 36% | 1024.8 hPa | 0 mm | - | - | - |
| 1777723543 | -0.56° C | 77% | 1024.2 hPa | 0 mm | - | - | - |
| 1777718147 | 0.56° C | 70% | 1024.2 hPa | 0 mm | - | - | - |
| 1777717524 | 0.56° C | 72% | 1024.1 hPa | 0 mm | - | - | - |
| 1777716919 | 0.56° C | 72% | 1024.1 hPa | 0 mm | - | - | - |
| 1777715127 | 1.11° C | 68% | 1023.9 hPa | 0 mm | - | - | - |
| 1777711559 | 1.67° C | 67% | 1023.8 hPa | 0 mm | - | - | - |
| 1777710955 | 1.67° C | 65% | 1023.9 hPa | 0 mm | - | - | - |
| 1777707331 | 1.11° C | 71% | 1024 hPa | 0 mm | - | - | - |
| 1777701333 | 2.22° C | 69% | 1023.7 hPa | 0 mm | - | - | - |
| 1777694127 | 5° C | 61% | 1023.3 hPa | 0 mm | - | - | - |
| 1777692316 | 6.11° C | 57% | 1022.8 hPa | 0 mm | - | - | - |
| 1777691732 | 6.67° C | 57% | 1022.7 hPa | 0 mm | - | - | - |
* Rain latest hour (hover to see other rain measurements)
** Current wind speed in m/s (hover to see current wind gust speed)